createdAt,value
2023-10-21T00:01:56.420Z,98471.81
2023-10-21T00:04:24.929Z,98473.63
2023-10-21T00:06:52.321Z,98484.66
2023-10-21T00:09:20.085Z,98486.25
2023-10-21T00:11:47.419Z,98477.91
2023-10-21T00:14:15.678Z,98481.06
2023-10-21T00:16:42.903Z,98473.81
2023-10-21T00:19:12.201Z,98480.94
2023-10-21T00:21:40.530Z,98486.88
2023-10-21T00:24:08.552Z,98483.81
2023-10-21T00:26:49.783Z,98478.63
2023-10-21T00:29:18.049Z,98479.66
2023-10-21T00:31:45.854Z,98486.38
2023-10-21T00:34:13.578Z,98492.38
2023-10-21T00:36:40.995Z,98486.03
2023-10-21T00:39:14.454Z,98482.81
2023-10-21T00:41:41.857Z,98506.03
2023-10-21T00:44:10.017Z,98512.47
2023-10-21T00:46:38.006Z,98507.97
2023-10-21T00:49:05.957Z,98489.03
2023-10-21T00:51:36.792Z,98486.25
2023-10-21T00:54:06.740Z,98499.06
2023-10-21T00:56:41.068Z,98490.53
2023-10-21T00:59:15.593Z,98493.78
2023-10-21T01:01:45.422Z,98490.31
2023-10-21T01:04:15.872Z,98501.34
2023-10-21T01:06:44.885Z,98490.53
2023-10-21T01:09:15.598Z,98494.00
2023-10-21T01:11:43.679Z,98494.22
2023-10-21T01:14:11.445Z,98496.34
2023-10-21T01:16:39.438Z,98471.81
2023-10-21T01:19:08.879Z,98466.50
2023-10-21T01:21:36.123Z,98458.38
2023-10-21T01:24:04.964Z,98461.75
2023-10-21T01:26:32.498Z,98476.19
2023-10-21T01:29:01.048Z,98470.09
2023-10-21T01:31:33.951Z,98458.94
2023-10-21T01:34:03.332Z,98478.97
2023-10-21T01:36:30.722Z,98469.66
2023-10-21T01:38:58.378Z,98457.88
2023-10-21T01:41:25.787Z,98452.38
2023-10-21T01:44:12.190Z,98447.38
2023-10-21T01:46:39.684Z,98446.25
2023-10-21T01:49:07.297Z,98437.22
2023-10-21T01:51:34.513Z,98454.44
2023-10-21T01:54:02.142Z,98449.59
2023-10-21T01:56:29.424Z,98467.97
2023-10-21T01:58:57.923Z,98481.94
2023-10-21T02:01:25.342Z,98484.06
2023-10-21T02:03:53.846Z,98489.47
2023-10-21T02:06:21.229Z,98501.94
2023-10-21T02:08:48.886Z,98498.69
2023-10-21T02:11:21.310Z,98498.94
2023-10-21T02:13:49.003Z,98496.84
2023-10-21T02:16:16.254Z,98512.66
2023-10-21T02:18:44.146Z,98494.03
2023-10-21T02:21:11.657Z,98516.47
2023-10-21T02:23:39.408Z,98511.91
2023-10-21T02:26:10.667Z,98514.97
2023-10-21T02:28:38.224Z,98512.72
2023-10-21T02:31:05.536Z,98506.28
2023-10-21T02:33:33.319Z,98511.09
2023-10-21T02:36:00.829Z,98502.34
2023-10-21T02:38:28.423Z,98508.19
2023-10-21T02:40:55.835Z,98502.81
2023-10-21T02:43:23.927Z,98506.75
2023-10-21T02:45:51.334Z,98529.44
2023-10-21T02:48:19.007Z,98517.41
2023-10-21T02:50:46.314Z,98519.19
2023-10-21T02:53:13.867Z,98522.06
2023-10-21T02:55:41.078Z,98522.47
2023-10-21T02:58:08.710Z,98521.78
2023-10-21T03:00:35.972Z,98527.94
2023-10-21T03:03:03.948Z,98530.81
2023-10-21T03:05:31.354Z,98545.47
2023-10-21T03:07:58.954Z,98538.81
2023-10-21T03:10:26.264Z,98540.94
2023-10-21T03:12:53.853Z,98554.72
2023-10-21T03:15:21.104Z,98545.59
2023-10-21T03:17:48.930Z,98550.94
2023-10-21T03:20:17.775Z,98537.97
2023-10-21T03:22:45.730Z,98548.63
2023-10-21T03:25:13.054Z,98548.22
2023-10-21T03:27:40.649Z,98544.81
2023-10-21T03:30:08.962Z,98543.38
2023-10-21T03:32:37.535Z,98549.84
2023-10-21T03:35:05.645Z,98563.94
2023-10-21T03:37:35.377Z,98567.16
2023-10-21T03:40:07.160Z,98564.84
2023-10-21T03:42:35.123Z,98554.94
2023-10-21T03:45:03.373Z,98558.38
2023-10-21T03:47:31.052Z,98555.22
2023-10-21T03:49:59.027Z,98550.88
2023-10-21T03:52:26.643Z,98559.09
2023-10-21T03:54:53.865Z,98558.16
2023-10-21T03:57:23.134Z,98549.78
2023-10-21T03:59:50.757Z,98541.03
2023-10-21T04:02:18.337Z,98561.91
2023-10-21T04:04:45.663Z,98550.75
2023-10-21T04:07:13.431Z,98541.25
2023-10-21T04:09:40.930Z,98552.06
2023-10-21T04:12:08.790Z,98548.78
2023-10-21T04:14:36.314Z,98551.03
2023-10-21T04:17:04.307Z,98531.75
2023-10-21T04:19:31.500Z,98544.38
2023-10-21T04:22:00.189Z,98556.53
2023-10-21T04:24:27.612Z,98528.25
2023-10-21T04:26:55.678Z,98556.25
2023-10-21T04:29:23.044Z,98548.31
2023-10-21T04:31:50.592Z,98563.28
2023-10-21T04:34:17.760Z,98562.34
2023-10-21T04:36:45.304Z,98568.44
2023-10-21T04:39:12.573Z,98568.28
2023-10-21T04:41:40.417Z,98581.72
2023-10-21T04:44:08.490Z,98576.78
2023-10-21T04:46:36.079Z,98577.19
2023-10-21T04:49:03.491Z,98579.31
2023-10-21T04:51:31.046Z,98587.72
2023-10-21T04:53:58.616Z,98581.66
2023-10-21T04:56:29.366Z,98579.25
2023-10-21T04:58:56.825Z,98570.91
2023-10-21T05:01:24.544Z,98581.91
2023-10-21T05:03:52.167Z,98565.31
2023-10-21T05:06:19.858Z,98569.81
2023-10-21T05:08:47.462Z,98583.50
2023-10-21T05:11:15.037Z,98571.97
2023-10-21T05:13:43.161Z,98583.81
2023-10-21T05:16:10.758Z,98581.06
2023-10-21T05:18:37.998Z,98571.56
2023-10-21T05:21:09.113Z,98589.59
2023-10-21T05:23:36.730Z,98587.44
2023-10-21T05:26:04.995Z,98601.56
2023-10-21T05:28:32.568Z,98614.03
2023-10-21T05:31:02.522Z,98610.72
2023-10-21T05:33:30.267Z,98620.13
2023-10-21T05:35:59.957Z,98612.28
2023-10-21T05:38:27.785Z,98623.00
2023-10-21T05:40:58.967Z,98636.19
2023-10-21T05:43:26.548Z,98634.88
2023-10-21T05:45:54.835Z,98654.22
2023-10-21T05:48:22.640Z,98666.25
2023-10-21T05:50:50.425Z,98665.81
2023-10-21T05:53:17.811Z,98673.44
2023-10-21T05:55:45.383Z,98692.16
2023-10-21T05:58:14.389Z,98704.00
2023-10-21T06:00:42.007Z,98669.38
2023-10-21T06:03:09.480Z,98720.78
2023-10-21T06:05:38.115Z,98696.03
2023-10-21T06:08:05.920Z,98700.09
2023-10-21T06:10:33.635Z,98714.25
2023-10-21T06:13:00.868Z,98704.50
2023-10-21T06:15:29.124Z,98718.47
2023-10-21T06:17:56.435Z,98725.72
2023-10-21T06:20:25.507Z,98725.88
2023-10-21T06:22:55.183Z,98728.47
2023-10-21T06:25:22.835Z,98735.56
2023-10-21T06:27:50.221Z,98734.25
2023-10-21T06:30:17.970Z,98746.06
2023-10-21T06:32:45.271Z,98747.41
2023-10-21T06:35:13.953Z,98749.16
2023-10-21T06:37:45.057Z,98751.22
2023-10-21T06:40:19.119Z,98748.78
2023-10-21T06:42:57.401Z,98768.19
2023-10-21T06:45:27.061Z,98773.66
2023-10-21T06:47:55.022Z,98763.78
2023-10-21T06:50:24.136Z,98760.22
2023-10-21T06:52:53.566Z,98775.69
2023-10-21T06:55:21.669Z,98781.91
2023-10-21T06:57:48.996Z,98781.53
2023-10-21T07:00:17.590Z,98781.72
2023-10-21T07:02:45.023Z,98783.97
2023-10-21T07:05:12.796Z,98799.25
2023-10-21T07:07:43.391Z,98789.66
2023-10-21T07:10:11.376Z,98789.03
2023-10-21T07:12:40.196Z,98795.38
2023-10-21T07:15:11.008Z,98798.44
2023-10-21T07:17:38.428Z,98826.75
2023-10-21T07:20:09.714Z,98815.59
2023-10-21T07:22:37.576Z,98819.78
2023-10-21T07:25:09.951Z,98824.72
2023-10-21T07:27:38.781Z,98820.94
2023-10-21T07:30:08.203Z,98831.88
2023-10-21T07:32:35.516Z,98840.25
2023-10-21T07:35:04.789Z,98824.22
2023-10-21T07:37:32.620Z,98829.13
2023-10-21T07:40:01.105Z,98826.28
2023-10-21T07:42:28.624Z,98837.91
2023-10-21T07:44:56.390Z,98826.28
2023-10-21T07:47:24.174Z,98840.16
2023-10-21T07:49:55.649Z,98843.44
2023-10-21T07:52:24.222Z,98831.78
2023-10-21T07:54:56.249Z,98851.16
2023-10-21T07:57:24.071Z,98846.50
2023-10-21T07:59:52.248Z,98851.31
2023-10-21T08:02:48.298Z,98848.53
2023-10-21T08:05:25.880Z,98866.28
2023-10-21T08:07:59.250Z,98876.50
2023-10-21T08:10:52.894Z,98869.44
2023-10-21T08:13:35.536Z,98878.69
2023-10-21T08:16:30.476Z,98870.91
2023-10-21T08:19:00.054Z,98878.06
2023-10-21T08:21:31.423Z,98876.31
2023-10-21T08:24:01.214Z,98878.13
2023-10-21T08:26:33.392Z,98879.69
2023-10-21T08:29:10.514Z,98874.88
2023-10-21T08:31:49.037Z,98878.63
2023-10-21T08:34:16.407Z,98873.63
2023-10-21T08:36:45.725Z,98874.84
2023-10-21T08:39:14.210Z,98872.91
2023-10-21T08:41:42.269Z,98878.72
2023-10-21T08:44:10.180Z,98875.97
2023-10-21T08:46:39.286Z,98876.63
2023-10-21T08:49:09.918Z,98871.72
2023-10-21T08:51:38.741Z,98877.78
2023-10-21T08:54:08.380Z,98875.72
2023-10-21T08:56:37.340Z,98881.16
2023-10-21T08:59:07.052Z,98871.63
2023-10-21T09:01:36.841Z,98870.00
2023-10-21T09:04:04.875Z,98885.78
2023-10-21T09:06:33.007Z,98884.06
2023-10-21T09:09:01.775Z,98883.22
2023-10-21T09:11:31.579Z,98878.56
2023-10-21T09:14:00.383Z,98878.34
2023-10-21T09:16:33.223Z,98878.53
2023-10-21T09:19:08.847Z,98886.34
2023-10-21T09:21:40.184Z,98875.66
2023-10-21T09:24:10.902Z,98881.38
2023-10-21T09:26:43.871Z,98884.03
2023-10-21T09:29:13.131Z,98886.50
2023-10-21T09:31:50.090Z,98897.94
2023-10-21T09:34:33.357Z,98890.59
2023-10-21T09:37:04.146Z,98889.69
2023-10-21T09:39:39.552Z,98884.13
2023-10-21T09:42:08.121Z,98882.44
2023-10-21T09:44:36.655Z,98893.63
2023-10-21T09:47:08.175Z,98877.34
2023-10-21T09:49:41.857Z,98875.16
2023-10-21T09:52:16.316Z,98878.63
2023-10-21T09:54:51.058Z,98883.09
2023-10-21T09:57:19.705Z,98871.25
2023-10-21T09:59:48.523Z,98871.84
2023-10-21T10:02:17.269Z,98867.31
2023-10-21T10:04:45.060Z,98860.72
2023-10-21T10:07:33.585Z,98862.59
2023-10-21T10:10:08.929Z,98858.19
2023-10-21T10:12:49.012Z,98858.63
2023-10-21T10:15:34.045Z,98856.38
2023-10-21T10:18:06.917Z,98863.00
2023-10-21T10:20:59.598Z,98852.31
2023-10-21T10:23:31.253Z,98855.88
2023-10-21T10:25:59.498Z,98841.59
2023-10-21T10:28:28.462Z,98835.41
2023-10-21T10:30:58.189Z,98836.63
2023-10-21T10:33:36.455Z,98830.09
2023-10-21T10:36:40.071Z,98830.00
2023-10-21T10:39:42.552Z,98824.69
2023-10-21T10:42:14.278Z,98821.31
2023-10-21T10:45:09.123Z,98831.84
2023-10-21T10:47:41.089Z,98807.81
2023-10-21T10:50:19.858Z,98804.56
2023-10-21T10:53:06.221Z,98805.06
2023-10-21T10:55:37.006Z,98816.22
2023-10-21T10:58:10.040Z,98813.88
2023-10-21T11:00:40.736Z,98818.69
2023-10-21T11:03:20.196Z,98828.06
2023-10-21T11:05:49.763Z,98828.06
2023-10-21T11:08:19.405Z,98821.66
2023-10-21T11:10:48.725Z,98824.31
2023-10-21T11:13:25.833Z,98829.81
2023-10-21T11:15:56.040Z,98818.50
2023-10-21T11:18:28.151Z,98811.34
2023-10-21T11:20:55.829Z,98818.69
2023-10-21T11:23:29.533Z,98822.19
2023-10-21T11:26:00.124Z,98824.63
2023-10-21T11:28:33.686Z,98831.16
2023-10-21T11:31:04.200Z,98825.84
2023-10-21T11:33:31.786Z,98828.91
2023-10-21T11:36:06.400Z,98841.78
2023-10-21T11:38:36.346Z,98837.38
2023-10-21T11:41:08.882Z,98828.75
2023-10-21T11:43:36.491Z,98830.75
2023-10-21T11:46:07.269Z,98831.88
2023-10-21T11:48:34.558Z,98849.81
2023-10-21T11:51:03.071Z,98838.13
2023-10-21T11:53:33.005Z,98834.56
2023-10-21T11:56:23.400Z,98836.34
2023-10-21T11:59:09.822Z,98835.44
2023-10-21T12:01:56.031Z,98835.69
2023-10-21T12:04:41.907Z,98836.25
2023-10-21T12:07:28.655Z,98843.38
2023-10-21T12:10:14.417Z,98833.22
2023-10-21T12:12:50.907Z,98827.47
2023-10-21T12:15:41.516Z,98830.16
2023-10-21T12:18:12.385Z,98841.69
2023-10-21T12:20:45.764Z,98843.63
2023-10-21T12:23:32.182Z,98845.97
2023-10-21T12:26:18.932Z,98853.44
2023-10-21T12:28:46.597Z,98854.03
2023-10-21T12:31:32.454Z,98848.72
2023-10-21T12:34:18.548Z,98847.00
2023-10-21T12:37:04.223Z,98846.50
2023-10-21T12:39:48.599Z,98847.09
2023-10-21T12:42:22.967Z,98846.50
2023-10-21T12:45:04.861Z,98856.50
2023-10-21T12:47:32.175Z,98844.97
2023-10-21T12:49:59.747Z,98847.94
2023-10-21T12:52:27.082Z,98842.81
2023-10-21T12:54:54.950Z,98836.25
2023-10-21T12:57:22.726Z,98829.63
2023-10-21T12:59:51.814Z,98839.16
2023-10-21T13:02:19.335Z,98828.97
2023-10-21T13:04:47.221Z,98833.22
2023-10-21T13:07:14.585Z,98824.66
2023-10-21T13:09:44.110Z,98825.78
2023-10-21T13:12:15.962Z,98824.66
2023-10-21T13:14:45.989Z,98830.38
2023-10-21T13:17:13.690Z,98825.06
2023-10-21T13:19:41.494Z,98828.13
2023-10-21T13:22:09.091Z,98817.09
2023-10-21T13:24:37.613Z,98819.97
2023-10-21T13:27:06.360Z,98809.88
2023-10-21T13:29:34.307Z,98806.31
2023-10-21T13:32:10.650Z,98808.53
2023-10-21T13:34:39.668Z,98806.50
2023-10-21T13:37:08.700Z,98806.41
2023-10-21T13:39:40.530Z,98808.03
2023-10-21T13:42:17.443Z,98817.72
2023-10-21T13:44:48.477Z,98818.34
2023-10-21T13:47:19.797Z,98812.22
2023-10-21T13:49:48.972Z,98813.97
2023-10-21T13:52:22.232Z,98804.81
2023-10-21T13:54:51.512Z,98800.88
2023-10-21T14:00:33.502Z,98815.34
2023-10-21T14:03:23.425Z,98807.03
2023-10-21T14:05:53.475Z,98808.13
2023-10-21T14:08:27.434Z,98807.03
2023-10-21T14:10:57.075Z,98807.34
2023-10-21T14:13:27.940Z,98802.00
2023-10-21T14:16:06.217Z,98791.31
2023-10-21T14:18:34.097Z,98797.13
2023-10-21T14:21:02.014Z,98785.47
2023-10-21T14:23:29.837Z,98791.00
2023-10-21T14:26:01.582Z,98792.00
2023-10-21T14:28:31.964Z,98790.41
2023-10-21T14:31:01.482Z,98787.66
2023-10-21T14:33:32.873Z,98791.81
2023-10-21T14:36:07.543Z,98792.63
2023-10-21T14:38:36.123Z,98781.41
2023-10-21T14:41:11.211Z,98796.06
2023-10-21T14:44:03.263Z,98803.81
2023-10-21T14:46:31.670Z,98807.59
2023-10-21T14:48:59.048Z,98810.34
2023-10-21T14:51:27.856Z,98827.47
2023-10-21T14:54:01.955Z,98812.00
2023-10-21T14:56:32.983Z,98816.09
2023-10-21T14:59:01.313Z,98807.34
2023-10-21T15:01:29.551Z,98819.66
2023-10-21T15:03:57.210Z,98819.16
2023-10-21T15:06:31.851Z,98811.38
2023-10-21T15:09:01.684Z,98816.00
2023-10-21T15:11:31.815Z,98823.31
2023-10-21T15:13:59.287Z,98815.69
2023-10-21T15:16:26.924Z,98819.97
2023-10-21T15:18:54.181Z,98817.09
2023-10-21T15:21:22.708Z,98823.75
2023-10-21T15:23:53.546Z,98826.91
2023-10-21T15:27:13.098Z,98827.63
2023-10-21T15:29:43.470Z,98828.34
2023-10-21T15:32:14.702Z,98828.34
2023-10-21T15:34:48.080Z,98827.31
2023-10-21T15:37:16.232Z,98820.78
2023-10-21T15:39:46.909Z,98828.97
2023-10-21T15:42:17.270Z,98822.59
2023-10-21T15:44:48.251Z,98830.22
2023-10-21T15:47:17.012Z,98820.47
2023-10-21T15:49:45.623Z,98816.69
2023-10-21T15:52:18.973Z,98809.53
2023-10-21T15:54:46.342Z,98819.72
2023-10-21T15:57:14.462Z,98817.34
2023-10-21T15:59:42.587Z,98818.91
2023-10-21T16:02:11.347Z,98817.13
2023-10-21T16:04:39.340Z,98809.88
2023-10-21T16:07:07.025Z,98804.19
2023-10-21T16:09:34.925Z,98803.56
2023-10-21T16:12:02.635Z,98798.69
2023-10-21T16:14:34.873Z,98806.41
2023-10-21T16:17:02.867Z,98799.97
2023-10-21T16:19:31.598Z,98802.94
2023-10-21T16:21:59.257Z,98804.13
2023-10-21T16:24:28.673Z,98797.50
2023-10-21T16:26:56.712Z,98796.72
2023-10-21T16:29:24.022Z,98790.91
2023-10-21T16:31:54.315Z,98787.44
2023-10-21T16:34:23.202Z,98794.75
2023-10-21T16:36:51.318Z,98793.34
2023-10-21T16:39:18.541Z,98804.75
2023-10-21T16:41:46.431Z,98814.03
2023-10-21T16:44:13.965Z,98815.97
2023-10-21T16:46:44.740Z,98819.81
2023-10-21T16:49:11.982Z,98810.78
2023-10-21T16:51:39.636Z,98824.28
2023-10-21T16:54:07.058Z,98823.56
2023-10-21T16:56:34.743Z,98827.06
2023-10-21T16:59:07.942Z,98819.41
2023-10-21T17:01:35.818Z,98821.00
2023-10-21T17:04:03.407Z,98833.97
2023-10-21T17:06:32.458Z,98841.41
2023-10-21T17:09:00.788Z,98829.34
2023-10-21T17:11:28.479Z,98830.19
2023-10-21T17:13:58.525Z,98835.69
2023-10-21T17:16:26.108Z,98836.34
2023-10-21T17:18:56.785Z,98840.44
2023-10-21T17:21:26.902Z,98836.59
2023-10-21T17:23:54.920Z,98852.25
2023-10-21T17:26:22.982Z,98854.13
2023-10-21T17:28:51.128Z,98856.34
2023-10-21T17:31:21.182Z,98866.31
2023-10-21T17:33:51.151Z,98872.88
2023-10-21T17:36:21.918Z,98872.03
2023-10-21T17:38:52.915Z,98879.63
2023-10-21T17:41:20.700Z,98878.94
2023-10-21T17:43:50.207Z,98888.88
2023-10-21T17:46:19.242Z,98897.81
2023-10-21T17:48:46.539Z,98895.63
2023-10-21T17:51:15.948Z,98909.31
2023-10-21T17:53:44.365Z,98911.03
2023-10-21T17:56:13.018Z,98912.97
2023-10-21T17:58:40.676Z,98929.00
2023-10-21T18:01:10.802Z,98925.94
2023-10-21T18:03:40.357Z,98928.13
2023-10-21T18:06:08.245Z,98939.69
2023-10-21T18:08:35.876Z,99011.00
2023-10-21T18:11:03.368Z,99075.56
2023-10-21T18:13:35.406Z,99081.63
2023-10-21T18:16:04.567Z,99070.03
2023-10-21T18:18:33.104Z,99093.31
2023-10-21T18:21:00.786Z,99095.59
2023-10-21T18:23:29.434Z,99089.38
2023-10-21T18:26:06.339Z,99086.97
2023-10-21T18:28:35.241Z,99093.56
2023-10-21T18:31:06.207Z,99087.81
2023-10-21T18:33:33.623Z,99086.25
2023-10-21T18:36:04.183Z,99086.56
2023-10-21T18:38:33.487Z,99088.53
2023-10-21T18:41:02.085Z,99093.50
2023-10-21T18:43:35.157Z,99078.16
2023-10-21T18:46:09.326Z,99075.16
2023-10-21T18:48:39.534Z,99064.50
2023-10-21T18:51:14.432Z,99050.25
2023-10-21T18:53:41.892Z,99025.03
2023-10-21T18:56:11.947Z,98988.31
2023-10-21T18:58:39.297Z,98966.66
2023-10-21T19:01:07.452Z,98949.97
2023-10-21T19:03:35.124Z,98922.00
2023-10-21T19:06:02.686Z,98888.59
2023-10-21T19:08:30.062Z,98871.34
2023-10-21T19:10:57.744Z,98858.47
2023-10-21T19:13:25.052Z,98848.09
2023-10-21T19:15:54.012Z,98858.22
2023-10-21T19:18:22.490Z,98845.50
2023-10-21T19:20:58.792Z,98850.19
2023-10-21T19:23:35.973Z,98842.81
2023-10-21T19:26:06.912Z,98824.75
2023-10-21T19:28:36.058Z,98827.28
2023-10-21T19:31:15.297Z,98842.34
2023-10-21T19:33:43.358Z,98850.34
2023-10-21T19:36:12.811Z,98864.03
2023-10-21T19:38:40.449Z,98868.81
2023-10-21T19:41:10.958Z,98890.75
2023-10-21T19:43:38.509Z,98879.81
2023-10-21T19:46:08.040Z,98889.13
2023-10-21T19:48:38.056Z,98891.25
2023-10-21T19:51:15.614Z,98883.09
2023-10-21T19:53:49.067Z,98863.88
2023-10-21T19:56:17.355Z,98860.59
2023-10-21T19:58:47.533Z,98871.19
2023-10-21T20:01:19.525Z,98873.34
2023-10-21T20:03:48.980Z,98879.63
2023-10-21T20:06:19.607Z,98876.59
2023-10-21T20:08:48.294Z,98879.41
2023-10-21T20:11:23.583Z,98879.09
2023-10-21T20:13:55.391Z,98869.47
2023-10-21T20:16:29.172Z,98876.09
2023-10-21T20:18:56.804Z,98879.03
2023-10-21T20:21:24.643Z,98873.75
2023-10-21T20:23:56.480Z,98891.19
2023-10-21T20:26:24.712Z,98898.78
2023-10-21T20:28:56.161Z,98908.84
2023-10-21T20:31:25.496Z,98914.84
2023-10-21T20:33:53.381Z,98916.41
2023-10-21T20:36:24.355Z,98929.53
2023-10-21T20:38:52.895Z,98929.53
2023-10-21T20:41:21.493Z,98946.94
2023-10-21T20:43:49.820Z,98949.97
2023-10-21T20:46:43.354Z,98963.78
2023-10-21T20:49:10.678Z,98983.19
2023-10-21T20:51:38.337Z,99006.16
2023-10-21T20:54:07.430Z,99037.91
2023-10-21T20:56:37.483Z,99018.75
2023-10-21T20:59:06.739Z,99009.53
2023-10-21T21:01:37.900Z,99006.66
2023-10-21T21:04:07.868Z,99044.81
2023-10-21T21:06:38.176Z,99000.44
2023-10-21T21:09:06.864Z,99019.75
2023-10-21T21:11:36.017Z,99045.03
2023-10-21T21:14:03.291Z,99028.66
2023-10-21T21:16:31.220Z,99018.56
2023-10-21T21:18:59.843Z,99012.84
2023-10-21T21:21:28.041Z,98994.22
2023-10-21T21:23:57.351Z,98988.25
2023-10-21T21:26:25.558Z,98984.97
2023-10-21T21:28:53.955Z,98993.72
2023-10-21T21:31:23.137Z,98986.59
2023-10-21T21:33:50.740Z,98981.09
2023-10-21T21:36:21.766Z,98988.25
2023-10-21T21:38:49.264Z,98996.41
2023-10-21T21:41:21.260Z,98995.88
2023-10-21T21:43:53.186Z,98992.56
2023-10-21T21:46:21.977Z,98987.59
2023-10-21T21:48:49.684Z,98973.41
2023-10-21T21:51:17.607Z,98959.69
2023-10-21T21:53:45.484Z,98955.59
2023-10-21T21:56:13.132Z,98955.81
2023-10-21T21:58:41.134Z,98945.94
2023-10-21T22:01:08.835Z,98919.66
2023-10-21T22:03:36.800Z,98912.81
2023-10-21T22:06:05.678Z,98911.69
2023-10-21T22:08:35.204Z,98928.09
2023-10-21T22:11:10.433Z,98941.81
2023-10-21T22:13:39.514Z,98929.72
2023-10-21T22:16:09.821Z,98926.69
2023-10-21T22:18:37.241Z,98935.97
2023-10-21T22:21:07.720Z,98924.44
2023-10-21T22:23:54.428Z,98919.22
2023-10-21T22:26:32.154Z,98898.56
2023-10-21T22:29:04.884Z,98922.13
2023-10-21T22:31:34.580Z,98925.69
2023-10-21T22:34:06.976Z,98923.69
2023-10-21T22:36:39.180Z,98928.13
2023-10-21T22:39:28.777Z,98916.09
2023-10-21T22:41:58.007Z,98915.56
2023-10-21T22:44:25.640Z,98907.63
2023-10-21T22:46:54.294Z,98912.56
2023-10-21T22:49:47.910Z,98918.81
2023-10-21T22:52:19.077Z,98910.88
2023-10-21T22:54:47.819Z,98909.50
2023-10-21T22:57:15.594Z,98900.72
2023-10-21T22:59:42.853Z,98908.91
2023-10-21T23:02:10.468Z,98912.41
2023-10-21T23:04:38.114Z,98891.88
2023-10-21T23:07:10.292Z,98905.13
2023-10-21T23:09:41.968Z,98891.50
2023-10-21T23:12:19.736Z,98888.56
2023-10-21T23:14:49.350Z,98893.53
2023-10-21T23:17:18.789Z,98878.97
2023-10-21T23:19:47.497Z,98888.88
2023-10-21T23:22:15.738Z,98891.06
2023-10-21T23:24:43.386Z,98910.78
2023-10-21T23:27:14.632Z,98898.16
2023-10-21T23:29:42.795Z,98913.47
2023-10-21T23:32:21.274Z,98901.94
2023-10-21T23:34:49.152Z,98895.94
2023-10-21T23:37:18.084Z,98903.88
2023-10-21T23:39:45.357Z,98927.69
2023-10-21T23:42:15.440Z,98907.72
2023-10-21T23:44:43.296Z,98926.94
2023-10-21T23:47:10.907Z,98908.03
2023-10-21T23:49:38.814Z,98905.31
2023-10-21T23:52:07.810Z,98916.84
2023-10-21T23:54:37.520Z,98924.50
2023-10-21T23:57:07.649Z,98930.03
2023-10-21T23:59:43.162Z,98930.28
